createdAt,value
2022-10-29T00:01:13.039Z,16.43
2022-10-29T00:03:43.546Z,15.83
2022-10-29T00:06:13.460Z,16.67
2022-10-29T00:08:43.181Z,14.70
2022-10-29T00:11:14.430Z,16.77
2022-10-29T00:13:43.821Z,15.07
2022-10-29T00:16:14.810Z,15.30
2022-10-29T00:18:45.554Z,9.20
2022-10-29T00:21:16.595Z,9.67
2022-10-29T00:23:45.110Z,11.97
2022-10-29T00:26:13.855Z,12.10
2022-10-29T00:28:42.351Z,11.37
2022-10-29T00:31:14.261Z,10.97
2022-10-29T00:33:44.584Z,11.23
2022-10-29T00:36:15.313Z,10.97
2022-10-29T00:38:44.217Z,8.60
2022-10-29T00:41:16.313Z,6.97
2022-10-29T00:43:48.901Z,7.37
2022-10-29T00:46:23.302Z,6.90
2022-10-29T00:48:56.178Z,6.00
2022-10-29T00:51:25.080Z,5.50
2022-10-29T00:53:58.173Z,5.40
2022-10-29T00:56:29.314Z,5.63
2022-10-29T00:58:57.771Z,5.80
2022-10-29T01:01:26.191Z,4.40
2022-10-29T01:03:56.875Z,4.57
2022-10-29T01:06:25.656Z,5.00
2022-10-29T01:08:53.996Z,4.90
2022-10-29T01:11:28.200Z,4.87
2022-10-29T01:14:07.870Z,4.17
2022-10-29T01:16:45.198Z,4.13
2022-10-29T01:19:30.319Z,4.57
2022-10-29T01:22:05.908Z,3.77
2022-10-29T01:25:08.609Z,4.30
2022-10-29T01:27:56.366Z,4.07
2022-10-29T01:30:42.529Z,4.23
2022-10-29T01:33:23.685Z,4.30
2022-10-29T01:36:06.389Z,4.50
2022-10-29T01:38:43.887Z,3.70
2022-10-29T01:41:21.567Z,4.27
2022-10-29T01:43:55.568Z,4.20
2022-10-29T01:46:28.939Z,4.97
2022-10-29T01:49:06.546Z,4.57
2022-10-29T01:51:37.824Z,4.37
2022-10-29T01:54:10.167Z,4.30
2022-10-29T01:56:39.014Z,5.13
2022-10-29T01:59:18.274Z,4.53
2022-10-29T02:02:07.901Z,4.37
2022-10-29T02:04:55.013Z,2.70
2022-10-29T02:07:37.345Z,4.90
2022-10-29T02:10:14.781Z,5.07
2022-10-29T02:12:48.302Z,5.30
2022-10-29T02:15:20.969Z,4.90
2022-10-29T02:17:49.515Z,5.57
2022-10-29T02:20:19.579Z,5.10
2022-10-29T02:22:48.096Z,4.90
2022-10-29T02:25:16.717Z,4.80
2022-10-29T02:27:45.056Z,4.53
2022-10-29T02:30:13.609Z,4.80
2022-10-29T02:32:42.292Z,4.77
2022-10-29T02:35:11.378Z,5.13
2022-10-29T02:37:41.584Z,3.60
2022-10-29T02:40:11.064Z,4.93
2022-10-29T02:42:39.855Z,4.20
2022-10-29T02:45:08.995Z,5.30
2022-10-29T02:47:37.588Z,4.23
2022-10-29T02:50:06.508Z,4.80
2022-10-29T02:52:34.976Z,5.43
2022-10-29T02:55:05.042Z,4.27
2022-10-29T02:57:33.118Z,5.30
2022-10-29T03:00:01.366Z,3.67
2022-10-29T03:02:29.994Z,4.73
2022-10-29T03:04:58.782Z,4.37
2022-10-29T03:07:27.219Z,4.20
2022-10-29T03:09:55.581Z,4.27
2022-10-29T03:12:25.138Z,4.47
2022-10-29T03:14:53.386Z,4.73
2022-10-29T03:17:21.750Z,4.70
2022-10-29T03:19:50.157Z,6.13
2022-10-29T03:22:18.412Z,4.30
2022-10-29T03:24:46.868Z,4.43
2022-10-29T03:27:14.903Z,3.63
2022-10-29T03:29:44.449Z,4.93
2022-10-29T03:32:12.669Z,4.27
2022-10-29T03:34:41.177Z,4.47
2022-10-29T03:37:09.283Z,4.07
2022-10-29T03:39:37.704Z,3.93
2022-10-29T03:42:06.274Z,4.13
2022-10-29T03:44:34.735Z,5.13
2022-10-29T03:47:05.714Z,4.50
2022-10-29T03:49:33.805Z,4.43
2022-10-29T03:52:01.956Z,4.23
2022-10-29T03:54:30.322Z,4.17
2022-10-29T03:56:58.459Z,4.17
2022-10-29T03:59:27.159Z,4.10
2022-10-29T04:01:55.557Z,3.37
2022-10-29T04:04:25.554Z,4.17
2022-10-29T04:06:54.157Z,3.77
2022-10-29T04:09:22.497Z,3.83
2022-10-29T04:11:50.898Z,3.10
2022-10-29T04:14:19.277Z,3.00
2022-10-29T04:16:47.608Z,3.50
2022-10-29T04:19:15.837Z,3.83
2022-10-29T04:32:42.241Z,3.47
2022-10-29T04:35:10.987Z,3.13
2022-10-29T04:37:41.217Z,3.53
2022-10-29T04:40:10.704Z,3.10
2022-10-29T04:42:39.062Z,3.50
2022-10-29T04:45:09.027Z,3.20
2022-10-29T04:47:37.514Z,2.40
2022-10-29T04:50:06.384Z,3.17
2022-10-29T04:52:34.596Z,3.37
2022-10-29T04:55:04.291Z,3.67
2022-10-29T04:57:32.538Z,3.23
2022-10-29T05:00:00.688Z,3.83
2022-10-29T05:02:28.838Z,4.10
2022-10-29T05:04:56.902Z,4.07
2022-10-29T05:07:25.303Z,3.60
2022-10-29T05:09:53.558Z,4.33
2022-10-29T05:12:22.931Z,4.30
2022-10-29T05:14:51.267Z,4.33
2022-10-29T05:17:19.579Z,4.20
2022-10-29T05:19:47.792Z,3.53
2022-10-29T05:22:16.127Z,4.67
2022-10-29T05:24:44.469Z,3.80
2022-10-29T05:27:12.441Z,3.63
2022-10-29T05:29:42.004Z,3.67
2022-10-29T05:32:10.236Z,4.17
2022-10-29T05:34:40.660Z,3.80
2022-10-29T05:37:10.326Z,4.53
2022-10-29T05:39:38.378Z,4.03
2022-10-29T05:42:07.365Z,3.53
2022-10-29T05:44:35.493Z,4.73
2022-10-29T05:47:07.336Z,3.93
2022-10-29T05:49:35.754Z,3.87
2022-10-29T05:52:04.010Z,3.30
2022-10-29T05:54:32.213Z,2.97
2022-10-29T05:57:00.820Z,3.43
2022-10-29T05:59:32.727Z,3.90
2022-10-29T06:02:02.259Z,3.30
2022-10-29T06:04:31.960Z,3.63
2022-10-29T06:07:00.087Z,4.17
2022-10-29T06:09:28.546Z,2.70
2022-10-29T06:11:57.364Z,3.10
2022-10-29T06:14:25.695Z,3.20
2022-10-29T06:16:54.006Z,2.77
2022-10-29T06:19:22.270Z,3.50
2022-10-29T06:21:55.192Z,3.03
2022-10-29T06:24:26.273Z,2.80
2022-10-29T06:26:54.959Z,2.47
2022-10-29T06:29:23.361Z,2.50
2022-10-29T06:31:51.970Z,3.03
2022-10-29T06:34:20.550Z,3.00
2022-10-29T06:36:49.018Z,3.33
2022-10-29T06:39:19.172Z,3.17
2022-10-29T06:41:51.518Z,2.53
2022-10-29T06:44:20.001Z,3.33
2022-10-29T06:46:48.150Z,2.47
2022-10-29T06:49:16.297Z,2.80
2022-10-29T06:51:44.768Z,2.43
2022-10-29T06:54:13.120Z,3.17
2022-10-29T06:56:42.870Z,2.90
2022-10-29T06:59:11.655Z,3.10
2022-10-29T07:01:40.230Z,2.77
2022-10-29T07:04:08.523Z,2.73
2022-10-29T07:06:38.011Z,2.73
2022-10-29T07:09:06.093Z,3.17
2022-10-29T07:11:35.855Z,2.80
2022-10-29T07:14:06.531Z,2.67
2022-10-29T07:16:35.040Z,3.00
2022-10-29T07:19:04.307Z,3.57
2022-10-29T07:21:32.779Z,2.80
2022-10-29T07:24:01.042Z,2.73
2022-10-29T07:26:32.054Z,3.40
2022-10-29T07:29:00.540Z,2.77
2022-10-29T07:31:31.087Z,2.77
2022-10-29T07:33:59.193Z,3.33
2022-10-29T07:36:27.698Z,2.93
2022-10-29T07:38:55.914Z,2.77
2022-10-29T07:41:24.685Z,3.63
2022-10-29T07:43:53.456Z,2.93
2022-10-29T07:46:21.498Z,2.90
2022-10-29T07:48:51.642Z,2.87
2022-10-29T07:51:20.427Z,3.10
2022-10-29T07:53:49.190Z,2.57
2022-10-29T07:56:17.570Z,3.27
2022-10-29T07:58:46.051Z,2.80
2022-10-29T08:01:14.261Z,2.67
2022-10-29T08:03:42.514Z,2.43
2022-10-29T08:06:12.206Z,2.67
2022-10-29T08:08:40.593Z,2.50
2022-10-29T08:11:08.996Z,3.27
2022-10-29T08:13:37.473Z,3.27
2022-10-29T08:16:05.961Z,2.90
2022-10-29T08:18:33.980Z,2.30
2022-10-29T08:21:06.070Z,3.10
2022-10-29T08:23:35.736Z,3.00
2022-10-29T08:26:04.218Z,3.60
2022-10-29T08:28:35.681Z,2.43
2022-10-29T08:31:04.432Z,2.80
2022-10-29T08:33:32.539Z,3.43
2022-10-29T08:36:01.160Z,3.03
2022-10-29T08:38:29.462Z,3.73
2022-10-29T08:41:17.640Z,2.97
2022-10-29T08:44:04.827Z,2.97
2022-10-29T08:46:44.724Z,3.03
2022-10-29T08:49:18.459Z,3.10
2022-10-29T08:51:54.221Z,3.00
2022-10-29T08:54:30.628Z,2.90
2022-10-29T08:57:07.514Z,2.50
2022-10-29T08:59:42.168Z,3.60
2022-10-29T09:02:17.262Z,2.23
2022-10-29T09:04:45.791Z,3.00
2022-10-29T09:07:36.828Z,3.23
2022-10-29T09:10:15.731Z,2.83
2022-10-29T09:13:01.626Z,2.90
2022-10-29T09:15:46.394Z,2.97
2022-10-29T09:18:25.936Z,2.77
2022-10-29T09:21:02.315Z,3.50
2022-10-29T09:23:49.283Z,2.93
2022-10-29T09:26:21.908Z,2.87
2022-10-29T09:29:01.649Z,2.93
2022-10-29T09:31:38.780Z,2.40
2022-10-29T09:34:14.538Z,2.00
2022-10-29T09:36:42.709Z,2.83
2022-10-29T09:39:15.600Z,2.73
2022-10-29T09:41:45.773Z,2.73
2022-10-29T09:44:23.907Z,3.27
2022-10-29T09:47:09.397Z,3.03
2022-10-29T09:49:49.027Z,3.27
2022-10-29T09:52:21.081Z,3.23
2022-10-29T09:54:53.204Z,3.03
2022-10-29T10:00:20.175Z,3.27
2022-10-29T10:02:55.672Z,3.37
2022-10-29T10:05:28.253Z,3.37
2022-10-29T10:08:09.008Z,2.10
2022-10-29T10:10:40.970Z,3.27
2022-10-29T10:13:17.214Z,3.47
2022-10-29T10:15:54.578Z,2.67
2022-10-29T10:18:26.744Z,2.77
2022-10-29T10:21:05.569Z,3.60
2022-10-29T10:23:43.140Z,3.10
2022-10-29T10:26:34.178Z,3.00
2022-10-29T10:29:16.476Z,2.67
2022-10-29T10:31:47.872Z,1.90
2022-10-29T10:34:19.447Z,3.90
2022-10-29T10:36:51.808Z,3.10
2022-10-29T10:39:32.362Z,2.97
2022-10-29T10:42:04.220Z,3.33
2022-10-29T10:44:33.528Z,2.77
2022-10-29T10:47:09.074Z,3.00
2022-10-29T10:49:39.784Z,2.70
2022-10-29T10:52:17.718Z,3.47
2022-10-29T10:54:48.190Z,2.87
2022-10-29T10:57:23.211Z,2.80
2022-10-29T10:59:59.537Z,3.27
2022-10-29T11:02:37.488Z,3.40
2022-10-29T11:05:14.022Z,2.37
2022-10-29T11:07:47.258Z,2.73
2022-10-29T11:10:17.329Z,2.10
2022-10-29T11:12:49.575Z,3.00
2022-10-29T11:15:24.878Z,2.67
2022-10-29T11:17:57.747Z,3.20
2022-10-29T11:20:30.083Z,3.47
2022-10-29T11:23:12.755Z,2.83
2022-10-29T11:25:46.451Z,3.27
2022-10-29T11:28:24.927Z,2.73
2022-10-29T11:30:59.452Z,2.37
2022-10-29T11:33:43.458Z,3.63
2022-10-29T11:36:19.981Z,2.17
2022-10-29T11:38:52.613Z,2.90
2022-10-29T11:41:30.550Z,2.97
2022-10-29T11:43:59.173Z,3.17
2022-10-29T11:46:43.571Z,2.63
2022-10-29T11:49:27.673Z,3.27
2022-10-29T11:52:06.633Z,3.47
2022-10-29T11:54:58.624Z,3.07
2022-10-29T11:57:35.271Z,3.40
2022-10-29T12:00:15.684Z,3.03
2022-10-29T12:03:21.476Z,3.50
2022-10-29T12:06:04.573Z,2.70
2022-10-29T12:08:47.805Z,3.50
2022-10-29T12:11:24.024Z,2.73
2022-10-29T12:14:00.647Z,3.50
2022-10-29T12:16:43.084Z,2.90
2022-10-29T12:19:23.477Z,3.20
2022-10-29T12:22:02.893Z,3.17
2022-10-29T12:24:47.476Z,2.80
2022-10-29T12:27:23.216Z,3.53
2022-10-29T12:29:59.248Z,3.37
2022-10-29T12:32:34.990Z,3.43
2022-10-29T12:35:13.893Z,2.70
2022-10-29T12:37:50.216Z,2.93
2022-10-29T12:40:23.795Z,3.27
2022-10-29T12:42:52.974Z,3.40
2022-10-29T12:45:33.530Z,2.57
2022-10-29T12:48:10.486Z,3.37
2022-10-29T12:50:53.497Z,2.43
2022-10-29T12:53:34.004Z,4.03
2022-10-29T12:56:05.102Z,2.87
2022-10-29T12:58:49.131Z,3.43
2022-10-29T13:04:35.706Z,3.30
2022-10-29T13:07:06.748Z,2.80
2022-10-29T13:09:38.299Z,3.03
2022-10-29T13:12:11.677Z,3.30
2022-10-29T13:14:44.987Z,3.30
2022-10-29T13:17:30.227Z,3.70
2022-10-29T13:20:01.980Z,3.10
2022-10-29T13:22:54.112Z,3.10
2022-10-29T13:25:49.570Z,3.93
2022-10-29T13:28:48.051Z,3.00
2022-10-29T13:31:49.575Z,3.50
2022-10-29T13:34:56.561Z,2.83
2022-10-29T13:37:55.799Z,2.87
2022-10-29T13:41:05.138Z,3.73
2022-10-29T13:43:36.856Z,3.40
2022-10-29T13:46:30.840Z,3.97
2022-10-29T13:49:04.527Z,3.37
2022-10-29T13:51:39.430Z,2.90
2022-10-29T13:54:16.872Z,3.73
2022-10-29T13:56:51.379Z,3.50
2022-10-29T13:59:30.404Z,3.03
2022-10-29T14:02:06.537Z,3.50
2022-10-29T14:04:41.094Z,3.57
2022-10-29T14:07:18.499Z,2.97
2022-10-29T14:09:52.821Z,3.33
2022-10-29T14:12:27.562Z,3.37
2022-10-29T14:15:05.571Z,3.73
2022-10-29T14:17:34.483Z,4.07
2022-10-29T14:20:03.428Z,3.93
2022-10-29T14:22:37.390Z,3.90
2022-10-29T14:25:28.759Z,3.60
2022-10-29T14:28:17.017Z,3.63
2022-10-29T14:30:49.589Z,3.87
2022-10-29T14:33:29.899Z,4.00
2022-10-29T14:36:03.438Z,4.20
2022-10-29T14:38:39.002Z,3.93
2022-10-29T14:41:07.578Z,3.60
2022-10-29T14:43:38.361Z,3.60
2022-10-29T14:46:23.181Z,3.70
2022-10-29T14:49:07.194Z,3.73
2022-10-29T14:51:41.083Z,4.70
2022-10-29T14:54:17.317Z,3.67
2022-10-29T14:56:46.246Z,4.20
2022-10-29T14:59:21.686Z,3.77
2022-10-29T15:02:00.906Z,4.10
2022-10-29T15:04:34.555Z,4.27
2022-10-29T15:07:30.848Z,4.90
2022-10-29T15:10:20.139Z,3.70
2022-10-29T15:12:49.416Z,3.73
2022-10-29T15:15:27.113Z,4.97
2022-10-29T15:18:01.951Z,4.40
2022-10-29T15:20:37.392Z,4.30
2022-10-29T15:23:06.997Z,3.97
2022-10-29T15:25:38.494Z,4.03
2022-10-29T15:28:16.469Z,4.03
2022-10-29T15:30:45.082Z,3.93
2022-10-29T15:33:19.708Z,3.70
2022-10-29T15:35:53.008Z,3.80
2022-10-29T15:39:19.759Z,4.30
2022-10-29T15:41:50.903Z,4.20
2022-10-29T15:44:33.153Z,3.90
2022-10-29T15:47:03.457Z,3.83
2022-10-29T15:49:34.745Z,3.87
2022-10-29T15:52:03.537Z,4.90
2022-10-29T15:54:32.154Z,4.20
2022-10-29T15:57:01.486Z,4.20
2022-10-29T15:59:30.815Z,3.90
2022-10-29T16:01:59.272Z,4.27
2022-10-29T16:04:28.426Z,3.60
2022-10-29T16:06:59.035Z,4.13
2022-10-29T16:09:28.462Z,4.00
2022-10-29T16:11:57.131Z,3.97
2022-10-29T16:14:25.483Z,3.73
2022-10-29T16:16:54.221Z,3.87
2022-10-29T16:19:23.358Z,4.53
2022-10-29T16:21:55.612Z,3.77
2022-10-29T16:24:29.168Z,3.97
2022-10-29T16:26:57.965Z,4.27
2022-10-29T16:29:26.658Z,4.83
2022-10-29T16:31:55.600Z,4.10
2022-10-29T16:34:24.937Z,3.97
2022-10-29T16:36:53.682Z,4.00
2022-10-29T16:39:22.746Z,3.67
2022-10-29T16:41:53.022Z,4.83
2022-10-29T16:44:22.729Z,4.60
2022-10-29T16:46:53.575Z,4.33
2022-10-29T16:49:24.984Z,4.37
2022-10-29T16:51:53.745Z,5.23
2022-10-29T16:54:22.204Z,4.87
2022-10-29T16:56:55.439Z,4.57
2022-10-29T16:59:24.144Z,4.27
2022-10-29T17:01:53.278Z,4.47
2022-10-29T17:04:21.759Z,4.77
2022-10-29T17:06:51.183Z,4.57
2022-10-29T17:09:25.243Z,4.77
2022-10-29T17:11:55.558Z,4.10
2022-10-29T17:14:25.679Z,4.90
2022-10-29T17:16:54.445Z,4.70
2022-10-29T17:19:23.088Z,5.13
2022-10-29T17:21:51.777Z,3.93
2022-10-29T17:24:20.549Z,3.97
2022-10-29T17:26:49.262Z,5.23
2022-10-29T17:29:19.437Z,4.17
2022-10-29T17:31:47.907Z,3.90
2022-10-29T17:34:16.628Z,5.00
2022-10-29T17:36:45.685Z,4.03
2022-10-29T17:39:14.010Z,5.10
2022-10-29T17:41:42.494Z,4.03
2022-10-29T17:44:11.379Z,4.00
2022-10-29T17:46:43.821Z,4.33
2022-10-29T17:49:13.608Z,4.93
2022-10-29T17:51:42.964Z,4.80
2022-10-29T17:54:14.617Z,5.90
2022-10-29T17:56:42.919Z,5.10
2022-10-29T17:59:12.472Z,4.87
2022-10-29T18:01:42.709Z,4.73
2022-10-29T18:04:14.214Z,5.53
2022-10-29T18:06:42.636Z,5.23
2022-10-29T18:09:17.154Z,4.50
2022-10-29T18:11:50.079Z,4.93
2022-10-29T18:14:18.758Z,4.40
2022-10-29T18:16:49.042Z,4.50
2022-10-29T18:19:18.996Z,4.43
2022-10-29T18:21:47.910Z,4.90
2022-10-29T18:24:16.648Z,4.60
2022-10-29T18:26:50.587Z,3.93
2022-10-29T18:29:19.015Z,4.30
2022-10-29T18:31:49.044Z,3.67
2022-10-29T18:34:17.650Z,4.00
2022-10-29T18:36:47.724Z,4.50
2022-10-29T18:39:18.527Z,4.90
2022-10-29T18:41:47.093Z,5.77
2022-10-29T18:44:15.196Z,4.57
2022-10-29T18:46:43.973Z,4.93
2022-10-29T18:49:14.006Z,4.50
2022-10-29T18:51:42.509Z,5.70
2022-10-29T18:54:15.096Z,4.90
2022-10-29T18:56:43.960Z,5.30
2022-10-29T18:59:12.888Z,5.57
2022-10-29T19:01:44.836Z,5.07
2022-10-29T19:04:18.594Z,5.70
2022-10-29T19:06:47.016Z,4.40
2022-10-29T19:09:16.538Z,4.87
2022-10-29T19:11:45.220Z,4.93
2022-10-29T19:14:15.633Z,4.93
2022-10-29T19:16:44.146Z,5.03
2022-10-29T19:19:17.284Z,4.80
2022-10-29T19:21:49.911Z,4.93
2022-10-29T19:24:18.231Z,4.23
2022-10-29T19:26:46.558Z,4.70
2022-10-29T19:29:16.227Z,5.70
2022-10-29T19:31:47.085Z,6.83
2022-10-29T19:34:17.778Z,5.77
2022-10-29T19:36:46.231Z,4.13
2022-10-29T19:39:14.587Z,4.70
2022-10-29T19:41:43.243Z,4.10
2022-10-29T19:44:11.990Z,4.93
2022-10-29T19:46:40.414Z,4.77
2022-10-29T19:49:09.255Z,4.53
2022-10-29T19:51:40.708Z,5.23
2022-10-29T19:54:09.950Z,6.80
2022-10-29T19:56:38.997Z,5.10
2022-10-29T19:59:07.811Z,4.30
2022-10-29T20:01:39.386Z,4.27
2022-10-29T20:04:08.173Z,4.30
2022-10-29T20:06:36.348Z,4.07
2022-10-29T20:09:06.365Z,4.23
2022-10-29T20:11:35.468Z,4.73
2022-10-29T20:14:04.162Z,4.97
2022-10-29T20:16:32.527Z,4.77
2022-10-29T20:19:01.238Z,5.17
2022-10-29T20:21:29.969Z,6.80
2022-10-29T20:23:58.370Z,5.80
2022-10-29T20:26:29.586Z,4.40
2022-10-29T20:28:58.231Z,5.67
2022-10-29T20:31:31.201Z,3.20
2022-10-29T20:34:02.551Z,14.50
2022-10-29T20:36:32.934Z,4.37
2022-10-29T20:39:01.804Z,9.67
2022-10-29T20:41:32.632Z,10.30
2022-10-29T20:44:02.973Z,6.17
2022-10-29T20:46:31.526Z,5.27
2022-10-29T20:49:00.388Z,4.30
2022-10-29T20:51:29.277Z,4.07
2022-10-29T20:53:57.480Z,3.60
2022-10-29T20:56:27.542Z,3.80
2022-10-29T20:58:57.310Z,4.13
2022-10-29T21:01:25.961Z,4.50
2022-10-29T21:03:54.287Z,4.10
2022-10-29T21:06:22.720Z,4.17
2022-10-29T21:08:52.769Z,4.07
2022-10-29T21:11:22.575Z,4.40
2022-10-29T21:13:51.931Z,3.97
2022-10-29T21:16:23.545Z,4.00
2022-10-29T21:18:53.682Z,3.80
2022-10-29T21:21:22.211Z,3.67
2022-10-29T21:23:58.669Z,4.10
2022-10-29T21:26:28.372Z,3.83
2022-10-29T21:28:57.581Z,4.20
2022-10-29T21:31:27.338Z,3.77
2022-10-29T21:33:56.770Z,3.63
2022-10-29T21:36:25.025Z,4.60
2022-10-29T21:38:53.459Z,4.40
2022-10-29T21:41:21.793Z,4.30
2022-10-29T21:43:50.075Z,3.87
2022-10-29T21:46:18.482Z,4.03
2022-10-29T21:48:48.178Z,3.27
2022-10-29T21:51:18.345Z,4.47
2022-10-29T21:53:46.483Z,4.37
2022-10-29T21:56:15.909Z,4.73
2022-10-29T21:58:44.501Z,3.83
2022-10-29T22:01:14.372Z,4.10
2022-10-29T22:03:45.133Z,3.80
2022-10-29T22:06:16.490Z,4.43
2022-10-29T22:08:45.822Z,3.93
2022-10-29T22:11:14.820Z,3.43
2022-10-29T22:13:43.043Z,3.60
2022-10-29T22:16:12.166Z,4.13
2022-10-29T22:18:40.847Z,4.00
2022-10-29T22:21:12.817Z,3.80
2022-10-29T22:23:45.662Z,4.67
2022-10-29T22:26:15.248Z,3.40
2022-10-29T22:28:43.797Z,4.00
2022-10-29T22:31:12.647Z,4.00
2022-10-29T22:33:40.895Z,4.90
2022-10-29T22:36:11.750Z,3.67
2022-10-29T22:38:40.669Z,4.03
2022-10-29T22:41:15.744Z,3.90
2022-10-29T22:43:44.580Z,3.13
2022-10-29T22:46:14.530Z,4.03
2022-10-29T22:48:43.825Z,3.53
2022-10-29T22:51:15.506Z,2.90
2022-10-29T22:53:45.742Z,3.57
2022-10-29T22:56:16.871Z,4.43
2022-10-29T22:58:45.633Z,3.83
2022-10-29T23:01:15.832Z,3.73
2022-10-29T23:03:44.959Z,4.90
2022-10-29T23:06:14.666Z,3.60
2022-10-29T23:08:44.466Z,3.67
2022-10-29T23:11:19.592Z,4.50
2022-10-29T23:13:48.867Z,3.70
2022-10-29T23:16:17.479Z,3.73
2022-10-29T23:18:50.476Z,4.27
2022-10-29T23:21:19.092Z,5.23
2022-10-29T23:23:49.897Z,3.73
2022-10-29T23:26:20.787Z,3.93
2022-10-29T23:28:49.978Z,3.00
2022-10-29T23:31:20.051Z,3.37
2022-10-29T23:33:49.867Z,4.37
2022-10-29T23:36:19.204Z,3.37
2022-10-29T23:38:47.530Z,3.90
2022-10-29T23:41:15.934Z,3.60
2022-10-29T23:43:45.588Z,3.47
2022-10-29T23:46:14.102Z,3.63
2022-10-29T23:48:42.358Z,4.00
2022-10-29T23:51:10.624Z,4.00
2022-10-29T23:53:39.153Z,3.63
2022-10-29T23:56:07.888Z,4.60
2022-10-29T23:58:36.262Z,4.30
